Etusivu
METAR-TAF:

METAR-TAF

Lentoasemat :

Doylestown Airport

Doylestown, Pennsylvania, Yhdysvallat

Leveyspiiri: 40-19-48N, Pituuspiiri: 075-07-21W, korkeus merenpinnasta: 120 m

Tämänhetkinen sää

Tämä raportti tehtiin 18 minuuttia sitten, kello 16.51 UTC
Tuuli 6 kn eri suunnista
Lämpötila 21°C
Kosteus 83%
Ilmanpaine 1006 hPa
Näkyvyys: 16.1 km
Muutamia pilviä 3800 ft:n korkeudessa
Hajonneita pilviä 9000 ft:n korkeudessa
Pilvistä 11000 ft:n korkeudessa
heikkoa sadetta

METAR: KDYL 031651Z AUTO VRB06KT 10SM -RA FEW038 BKN090 OVC110 21/18 A2971 RMK AO2 PK WND 27041/1616 LTG DSNT E-S RAB15 TSB14E35 P0054 $

Aika: 13:09 (17:09 UTC)


TAF: puuttuu

Säähavainnot ja -ennusteet yli 4000 lentoasemalta (METAR- ja TAF-raportit).

Käytössä olevat sääasemat on merkitty karttaan keltaisilla ja punaisilla pisteillä.

Aseta hiiri pisteen päälle nähdäksesi sääaseman nimen.

Klikkaa sitten nähdäksesi säähavainnot ja -ennusteet.

Kartan vaihtaminen: klikkaa mustalla rastilla varustettuja vihreitä pisteitä, niin voit zoomata sisään; viivalla varustettua vihreää pistettä, niin voit zoomata ulos tai vihreitä nuolia, niin pääset viereisille kartoille.


METAR-TAF: